Time;durP1;ratioP1;P1;durP2;ratioP2;P2;SDS_P1;SDS_P2;PMS_P1;PMS_P2;Temp;Humidity;BMP_temperature;BMP_pressure;BME280_temperature;BME280_humidity;BME280_pressure;Samples;Min_cycle;Max_cycle;Signal;HPM_P1;HPM_P2
2022/01/21 00:01:36;;;;;;;;;;;23.00;20.70;;;;;;5123242;27;20011;-49
2022/01/21 00:04:02;;;;;;;;;;;23.00;20.60;;;;;;5128683;27;20009;-48
2022/01/21 00:06:28;;;;;;;;;;;23.00;20.60;;;;;;5122883;27;20282;-46
2022/01/21 00:08:54;;;;;;;;;;;23.00;20.60;;;;;;5123503;27;19923;-52
2022/01/21 00:11:20;;;;;;;;;;;23.00;20.60;;;;;;5127112;27;19969;-46
2022/01/21 00:13:46;;;;;;;;;;;22.90;20.60;;;;;;5120673;27;19927;-47
2022/01/21 00:16:19;;;;;;;;;;;23.00;20.60;;;;;;5127278;27;19954;-47
2022/01/21 00:18:53;;;;;;;;;;;23.00;20.60;;;;;;5104001;27;20222;-47
2022/01/21 00:32:17;;;;;;;;;;;23.10;20.40;;;;;;5120338;27;19968;-47
2022/01/21 00:34:42;;;;;;;;;;;23.20;20.40;;;;;;5127612;27;19943;-49
2022/01/21 00:37:08;;;;;;;;;;;23.20;20.30;;;;;;5122138;27;19923;-44
2022/01/21 00:39:35;;;;;;;;;;;23.10;20.40;;;;;;5127943;27;19924;-43
2022/01/21 00:42:12;;;;;;;;;;;23.30;20.20;;;;;;5122293;27;19924;-45
2022/01/21 00:44:38;;;;;;;;;;;23.30;20.10;;;;;;5118491;27;19927;-48
2022/01/21 00:47:04;;;;;;;;;;;23.30;20.20;;;;;;5127572;27;20470;-57
2022/01/21 00:49:30;;;;;;;;;;;23.20;20.30;;;;;;5119889;27;19931;-54
2022/01/21 00:51:55;;;;;;;;;;;22.90;20.50;;;;;;5121601;27;19934;-55
2022/01/21 00:54:21;;;;;;;;;;;22.80;20.60;;;;;;5127163;27;19931;-55
2022/01/21 00:56:47;;;;;;;;;;;22.80;20.50;;;;;;5122147;27;19931;-53
2022/01/21 00:59:13;;;;;;;;;;;22.80;20.60;;;;;;5123699;27;19930;-55
2022/01/21 01:01:38;;;;;;;;;;;22.80;20.60;;;;;;5125703;27;20158;-51
2022/01/21 01:04:04;;;;;;;;;;;22.80;20.60;;;;;;5120941;27;20521;-51
2022/01/21 01:06:30;;;;;;;;;;;22.80;20.60;;;;;;5127204;27;20298;-52
2022/01/21 01:08:56;;;;;;;;;;;22.70;20.70;;;;;;5119683;27;19924;-52
2022/01/21 01:22:12;;;;;;;;;;;22.70;20.60;;;;;;5126293;27;19973;-50
2022/01/21 01:29:54;;;;;;;;;;;22.70;20.60;;;;;;5126914;27;19924;-51
2022/01/21 01:32:19;;;;;;;;;;;22.80;20.60;;;;;;5121209;27;19924;-49
2022/01/21 01:34:45;;;;;;;;;;;22.80;20.60;;;;;;5121436;27;19923;-50
2022/01/21 01:37:23;;;;;;;;;;;22.70;20.60;;;;;;5126840;27;19928;-51
2022/01/21 01:39:59;;;;;;;;;;;22.80;20.60;;;;;;5120587;27;20292;-51
2022/01/21 01:50:29;;;;;;;;;;;22.80;20.60;;;;;;5121304;28;19934;-48
2022/01/21 01:52:55;;;;;;;;;;;22.80;20.60;;;;;;5123004;28;19923;-49
2022/01/21 01:55:21;;;;;;;;;;;22.80;20.60;;;;;;5121337;28;19930;-52
2022/01/21 01:57:47;;;;;;;;;;;22.80;20.60;;;;;;5120832;28;20064;-47
2022/01/21 02:00:13;;;;;;;;;;;22.80;20.70;;;;;;5126305;28;20287;-51
2022/01/21 02:02:39;;;;;;;;;;;22.80;20.60;;;;;;5101340;28;19928;-47
2022/01/21 02:05:05;;;;;;;;;;;22.80;20.60;;;;;;5120291;28;19972;-53
2022/01/21 02:07:30;;;;;;;;;;;22.80;20.60;;;;;;5126125;28;19941;-47
2022/01/21 02:09:56;;;;;;;;;;;22.80;20.50;;;;;;5120978;28;19923;-50
2022/01/21 02:12:22;;;;;;;;;;;22.70;20.60;;;;;;5126769;28;19939;-50
2022/01/21 02:14:51;;;;;;;;;;;22.80;20.60;;;;;;5121105;28;19927;-50
2022/01/21 02:22:43;;;;;;;;;;;22.80;20.70;;;;;;5118769;28;19931;-50
2022/01/21 02:25:17;;;;;;;;;;;22.80;20.70;;;;;;5120735;28;19979;-47
2022/01/21 02:27:44;;;;;;;;;;;22.80;20.70;;;;;;5126233;28;19937;-49
2022/01/21 02:30:17;;;;;;;;;;;22.80;20.80;;;;;;5102251;28;19933;-51
2022/01/21 02:32:47;;;;;;;;;;;22.70;20.90;;;;;;5120787;28;20434;-49
2022/01/21 02:35:13;;;;;;;;;;;22.80;20.80;;;;;;5125623;28;19924;-49
2022/01/21 02:37:39;;;;;;;;;;;22.80;20.80;;;;;;5120846;28;19971;-48
2022/01/21 02:40:06;;;;;;;;;;;22.80;20.80;;;;;;5121446;27;20544;-50
2022/01/21 02:42:32;;;;;;;;;;;22.80;20.80;;;;;;5129753;27;20061;-49
2022/01/21 02:44:57;;;;;;;;;;;22.80;20.80;;;;;;5124086;27;19927;-50
2022/01/21 02:47:23;;;;;;;;;;;22.80;20.80;;;;;;5129899;27;19927;-50
2022/01/21 02:49:49;;;;;;;;;;;22.80;20.80;;;;;;5124424;27;20256;-47
2022/01/21 02:52:18;;;;;;;;;;;22.80;20.80;;;;;;5124323;27;19930;-51
2022/01/21 02:54:44;;;;;;;;;;;22.80;20.80;;;;;;5128963;27;19923;-49
2022/01/21 02:57:09;;;;;;;;;;;22.80;20.80;;;;;;5124283;27;19923;-49
2022/01/21 02:59:35;;;;;;;;;;;22.70;20.80;;;;;;5122163;27;20018;-50
2022/01/21 03:02:01;;;;;;;;;;;22.80;20.80;;;;;;5129429;27;20280;-51
2022/01/21 03:04:43;;;;;;;;;;;22.80;20.80;;;;;;5124083;27;20296;-50
2022/01/21 03:07:09;;;;;;;;;;;22.80;20.70;;;;;;5122118;27;20432;-48
2022/01/21 03:09:35;;;;;;;;;;;22.80;20.60;;;;;;5129704;27;19928;-48
2022/01/21 03:12:01;;;;;;;;;;;22.80;20.60;;;;;;5123425;27;20351;-47
2022/01/21 03:14:26;;;;;;;;;;;22.80;20.50;;;;;;5129190;27;19927;-49
2022/01/21 03:16:52;;;;;;;;;;;22.80;20.60;;;;;;5122326;27;20412;-46
2022/01/21 03:19:18;;;;;;;;;;;22.80;20.60;;;;;;5123274;27;20445;-47
2022/01/21 03:21:44;;;;;;;;;;;22.80;20.60;;;;;;5128662;27;19938;-46
2022/01/21 03:24:09;;;;;;;;;;;22.80;20.60;;;;;;5123777;27;19972;-46
2022/01/21 03:26:35;;;;;;;;;;;22.80;20.60;;;;;;5124035;27;20406;-49
2022/01/21 03:29:01;;;;;;;;;;;22.70;20.70;;;;;;5129230;27;19992;-46
2022/01/21 03:31:27;;;;;;;;;;;22.80;20.70;;;;;;5122853;27;19927;-48
2022/01/21 03:33:53;;;;;;;;;;;22.70;20.80;;;;;;5129426;27;20022;-48
2022/01/21 03:36:19;;;;;;;;;;;22.80;20.70;;;;;;5121663;27;19924;-47
2022/01/21 03:38:44;;;;;;;;;;;22.80;20.60;;;;;;5123283;27;20018;-47
2022/01/21 03:41:10;;;;;;;;;;;22.80;20.60;;;;;;5128779;27;19924;-47
2022/01/21 03:43:36;;;;;;;;;;;22.80;20.60;;;;;;5123655;27;19934;-45
2022/01/21 03:46:03;;;;;;;;;;;22.80;20.50;;;;;;5123353;27;20744;-48
2022/01/21 03:48:28;;;;;;;;;;;22.90;20.60;;;;;;5128340;27;19923;-47
2022/01/21 03:50:54;;;;;;;;;;;22.80;20.60;;;;;;5122022;27;19986;-50
2022/01/21 03:53:20;;;;;;;;;;;22.90;20.50;;;;;;5126195;27;19935;-51
2022/01/21 03:55:46;;;;;;;;;;;22.90;20.50;;;;;;5123686;27;19924;-47
2022/01/21 03:58:12;;;;;;;;;;;22.90;20.50;;;;;;5122642;27;19930;-45
2022/01/21 04:00:50;;;;;;;;;;;22.80;20.50;;;;;;5128419;27;19924;-46
2022/01/21 04:03:16;;;;;;;;;;;22.90;20.50;;;;;;5123339;27;20384;-47
2022/01/21 04:05:42;;;;;;;;;;;22.90;20.50;;;;;;5123042;27;19927;-47
2022/01/21 04:08:08;;;;;;;;;;;23.00;20.40;;;;;;5127516;27;20306;-47
2022/01/21 04:10:41;;;;;;;;;;;22.90;20.40;;;;;;5122538;27;19923;-49
2022/01/21 04:13:14;;;;;;;;;;;22.90;20.40;;;;;;5120793;27;20192;-46
2022/01/21 04:15:40;;;;;;;;;;;22.90;20.40;;;;;;5127970;27;20348;-48
2022/01/21 04:18:05;;;;;;;;;;;22.90;20.40;;;;;;5122333;27;19928;-47
2022/01/21 04:20:31;;;;;;;;;;;23.00;20.40;;;;;;5123871;27;19927;-51
2022/01/21 04:22:58;;;;;;;;;;;23.00;20.30;;;;;;5127191;27;19927;-46
2022/01/21 04:25:23;;;;;;;;;;;23.00;20.30;;;;;;5122425;27;19924;-46
2022/01/21 04:27:49;;;;;;;;;;;23.00;20.40;;;;;;5127347;27;20428;-48
2022/01/21 04:30:15;;;;;;;;;;;23.00;20.30;;;;;;5122293;27;19927;-50
2022/01/21 04:32:41;;;;;;;;;;;23.10;20.30;;;;;;5120528;27;19923;-46
2022/01/21 04:35:06;;;;;;;;;;;23.00;20.30;;;;;;5109213;27;19967;-45
2022/01/21 04:37:32;;;;;;;;;;;23.00;20.30;;;;;;5122260;27;20123;-48
2022/01/21 04:40:08;;;;;;;;;;;23.00;20.30;;;;;;5122604;27;19930;-46
2022/01/21 04:48:03;;;;;;;;;;;23.20;20.10;;;;;;5122556;27;20290;-49
2022/01/21 04:50:38;;;;;;;;;;;20.50;22.80;;;;;;5125589;27;19923;-47
2022/01/21 04:53:04;;;;;;;;;;;21.30;22.10;;;;;;5121874;27;20467;-48
2022/01/21 04:55:30;;;;;;;;;;;22.20;21.10;;;;;;5121666;27;19924;-48
2022/01/21 04:57:56;;;;;;;;;;;22.60;20.60;;;;;;5127355;27;20317;-49
2022/01/21 05:00:21;;;;;;;;;;;22.80;20.50;;;;;;5121904;27;19923;-48
2022/01/21 05:02:47;;;;;;;;;;;22.90;20.40;;;;;;5126997;27;19928;-48
2022/01/21 05:05:13;;;;;;;;;;;23.00;20.30;;;;;;5121545;27;19928;-49
2022/01/21 05:07:40;;;;;;;;;;;23.00;20.30;;;;;;5120676;27;20010;-49
2022/01/21 05:10:06;;;;;;;;;;;22.10;21.10;;;;;;5126619;27;20335;-52
2022/01/21 05:12:32;;;;;;;;;;;20.40;23.10;;;;;;5121479;27;19933;-49
2022/01/21 05:17:25;;;;;;;;;;;22.40;20.90;;;;;;5127276;27;19928;-50
2022/01/21 05:19:50;;;;;;;;;;;22.70;20.50;;;;;;5121504;27;19953;-49
2022/01/21 05:22:16;;;;;;;;;;;22.90;20.40;;;;;;5126185;27;19923;-51
2022/01/21 05:24:42;;;;;;;;;;;23.00;20.30;;;;;;5121896;27;19924;-54
2022/01/21 05:27:10;;;;;;;;;;;22.20;21.00;;;;;;5120260;27;19927;-54
2022/01/21 05:29:36;;;;;;;;;;;20.60;23.00;;;;;;5108379;27;19923;-58
2022/01/21 05:32:02;;;;;;;;;;;21.80;21.60;;;;;;5121191;27;20427;-58
2022/01/21 05:34:28;;;;;;;;;;;22.40;20.90;;;;;;5121559;27;19927;-58
2022/01/21 05:36:54;;;;;;;;;;;22.80;20.60;;;;;;5127033;27;20331;-59
2022/01/21 05:39:20;;;;;;;;;;;22.80;20.50;;;;;;5121388;27;19935;-58
2022/01/21 05:41:48;;;;;;;;;;;23.00;20.30;;;;;;5124308;27;19928;-60
2022/01/21 05:46:22;;;;;;;;;;;20.80;22.50;;;;;;5125961;27;19924;-54
2022/01/21 05:47:01;;;;;;;;;;;21.30;22.10;;;;;;5120279;28;19928;-57
2022/01/21 05:49:28;;;;;;;;;;;22.30;21.00;;;;;;5124564;28;19924;-61
2022/01/21 05:52:01;;;;;;;;;;;22.70;20.70;;;;;;5123630;28;19923;-59
2022/01/21 05:54:27;;;;;;;;;;;22.90;20.50;;;;;;5103399;28;20424;-55
2022/01/21 05:56:53;;;;;;;;;;;22.80;20.40;;;;;;5127481;28;19924;-55
2022/01/21 05:59:18;;;;;;;;;;;20.00;23.60;;;;;;5120441;28;19935;-57
2022/01/21 06:01:44;;;;;;;;;;;21.80;21.60;;;;;;5121160;28;19939;-51
2022/01/21 06:04:10;;;;;;;;;;;22.40;20.90;;;;;;5124416;28;19927;-53
2022/01/21 06:06:36;;;;;;;;;;;22.70;20.60;;;;;;5120732;28;20406;-54
2022/01/21 06:09:02;;;;;;;;;;;22.90;20.40;;;;;;5120366;28;19931;-60
2022/01/21 06:11:28;;;;;;;;;;;23.10;20.30;;;;;;5127928;28;20006;-59
2022/01/21 06:13:54;;;;;;;;;;;19.80;23.60;;;;;;5122118;27;20391;-55
2022/01/21 06:16:20;;;;;;;;;;;21.70;21.70;;;;;;5130607;27;19928;-58
2022/01/21 06:18:45;;;;;;;;;;;22.40;21.00;;;;;;5124567;27;19938;-58
2022/01/21 06:21:11;;;;;;;;;;;22.70;20.70;;;;;;5124574;27;19927;-58
2022/01/21 06:23:37;;;;;;;;;;;22.90;20.50;;;;;;5128427;27;19923;-58
2022/01/21 06:26:03;;;;;;;;;;;23.10;20.30;;;;;;5124813;27;19923;-58
2022/01/21 06:28:29;;;;;;;;;;;21.90;21.30;;;;;;5125092;27;20177;-58
2022/01/21 06:30:54;;;;;;;;;;;21.20;22.20;;;;;;5130373;27;19923;-59
2022/01/21 06:33:23;;;;;;;;;;;22.10;21.20;;;;;;5124760;27;19927;-58
2022/01/21 06:35:49;;;;;;;;;;;22.60;20.80;;;;;;5129547;27;19930;-58
2022/01/21 06:38:16;;;;;;;;;;;22.80;20.60;;;;;;5124874;27;20314;-57
2022/01/21 06:40:41;;;;;;;;;;;23.00;20.40;;;;;;5123719;27;19930;-57
2022/01/21 06:43:07;;;;;;;;;;;21.80;21.40;;;;;;5130471;27;19927;-51
2022/01/21 06:45:33;;;;;;;;;;;21.10;22.40;;;;;;5124199;27;19940;-50
2022/01/21 06:47:59;;;;;;;;;;;22.10;21.30;;;;;;5124532;27;19927;-50
2022/01/21 06:50:25;;;;;;;;;;;22.50;20.90;;;;;;5130292;27;20290;-48
2022/01/21 06:52:51;;;;;;;;;;;22.70;20.70;;;;;;5124453;27;19928;-50
2022/01/21 06:55:16;;;;;;;;;;;22.90;20.50;;;;;;5126739;27;20203;-57
2022/01/21 06:57:42;;;;;;;;;;;23.00;20.40;;;;;;5127376;27;19949;-60
2022/01/21 07:00:09;;;;;;;;;;;22.30;21.00;;;;;;5122988;27;19923;-56
2022/01/21 07:02:35;;;;;;;;;;;20.80;22.70;;;;;;5129400;27;19937;-60
2022/01/21 07:05:02;;;;;;;;;;;21.90;21.50;;;;;;5123780;27;20022;-59
2022/01/21 07:07:28;;;;;;;;;;;22.50;20.90;;;;;;5124374;27;19923;-59
2022/01/21 07:09:55;;;;;;;;;;;22.70;20.70;;;;;;5129784;27;20014;-59
2022/01/21 07:12:21;;;;;;;;;;;22.90;20.50;;;;;;5123858;27;20022;-60
2022/01/21 07:14:47;;;;;;;;;;;23.00;20.40;;;;;;5124832;27;19949;-62
2022/01/21 07:17:13;;;;;;;;;;;20.70;22.50;;;;;;5128651;27;20084;-57
2022/01/21 07:19:38;;;;;;;;;;;21.50;22.00;;;;;;5122593;27;19944;-56
2022/01/21 07:22:04;;;;;;;;;;;22.30;21.00;;;;;;5128781;27;20301;-58
2022/01/21 07:24:30;;;;;;;;;;;22.70;20.70;;;;;;5123905;27;19923;-57
2022/01/21 07:26:56;;;;;;;;;;;23.00;20.40;;;;;;5122596;27;19930;-57
2022/01/21 07:29:22;;;;;;;;;;;23.10;20.30;;;;;;5130178;27;19931;-61
2022/01/21 07:31:53;;;;;;;;;;;19.90;23.40;;;;;;5122959;27;19929;-58
2022/01/21 07:34:19;;;;;;;;;;;21.80;21.60;;;;;;5106102;27;20189;-59
2022/01/21 07:36:45;;;;;;;;;;;22.50;20.90;;;;;;5126962;27;19923;-60
2022/01/21 07:39:10;;;;;;;;;;;22.80;20.60;;;;;;5123305;27;20023;-60
2022/01/21 07:41:36;;;;;;;;;;;23.00;20.40;;;;;;5129167;27;19924;-59
2022/01/21 07:44:02;;;;;;;;;;;22.20;21.00;;;;;;5124685;27;19927;-56
2022/01/21 07:46:28;;;;;;;;;;;20.80;22.70;;;;;;5123392;27;19972;-58
2022/01/21 07:48:54;;;;;;;;;;;22.10;21.30;;;;;;5128702;27;19932;-57
2022/01/21 07:51:20;;;;;;;;;;;22.60;20.80;;;;;;5122581;27;19927;-57
2022/01/21 07:53:46;;;;;;;;;;;22.80;20.50;;;;;;5122918;27;20098;-56
2022/01/21 07:56:12;;;;;;;;;;;23.00;20.30;;;;;;5127142;27;19923;-61
2022/01/21 07:58:37;;;;;;;;;;;22.30;20.90;;;;;;5104925;27;19949;-59
2022/01/21 08:01:03;;;;;;;;;;;20.80;22.90;;;;;;5126550;27;20383;-60
2022/01/21 08:03:29;;;;;;;;;;;22.00;21.40;;;;;;5125328;27;19977;-58
2022/01/21 08:05:55;;;;;;;;;;;22.60;20.80;;;;;;5123145;27;20328;-57
2022/01/21 08:08:21;;;;;;;;;;;22.80;20.50;;;;;;5127606;27;19927;-55
2022/01/21 08:10:47;;;;;;;;;;;23.10;20.30;;;;;;5123475;27;19927;-62
2022/01/21 08:13:12;;;;;;;;;;;22.10;21.10;;;;;;5121993;27;20027;-58
2022/01/21 08:15:38;;;;;;;;;;;20.80;22.60;;;;;;5127811;27;19966;-58
2022/01/21 08:18:05;;;;;;;;;;;22.00;21.40;;;;;;5122369;27;20018;-60
2022/01/21 08:20:31;;;;;;;;;;;22.50;20.80;;;;;;5124034;27;20465;-60
2022/01/21 08:22:57;;;;;;;;;;;22.70;20.60;;;;;;5109285;27;19931;-60
2022/01/21 08:25:23;;;;;;;;;;;22.90;20.40;;;;;;5122979;27;19930;-59
2022/01/21 08:27:48;;;;;;;;;;;23.20;20.20;;;;;;5127949;27;20298;-59
2022/01/21 08:30:14;;;;;;;;;;;21.50;21.60;;;;;;5123272;27;19950;-57
2022/01/21 08:32:40;;;;;;;;;;;21.30;22.10;;;;;;5120362;27;19972;-57
2022/01/21 08:35:06;;;;;;;;;;;22.30;21.00;;;;;;5127726;27;19923;-56
2022/01/21 08:37:32;;;;;;;;;;;22.70;20.60;;;;;;5121827;27;19952;-59
2022/01/21 08:39:58;;;;;;;;;;;22.90;20.40;;;;;;5103932;27;19924;-60
2022/01/21 08:42:23;;;;;;;;;;;22.60;20.50;;;;;;5128791;27;19924;-59
2022/01/21 08:44:49;;;;;;;;;;;20.40;23.10;;;;;;5122175;27;19985;-59
2022/01/21 08:47:16;;;;;;;;;;;21.80;21.40;;;;;;5127215;27;19927;-59
2022/01/21 08:49:43;;;;;;;;;;;22.40;20.80;;;;;;5121137;27;19927;-57
2022/01/21 08:52:18;;;;;;;;;;;22.80;20.50;;;;;;5120461;27;20306;-59
2022/01/21 08:54:44;;;;;;;;;;;23.00;20.30;;;;;;5127515;27;20351;-61
2022/01/21 08:57:09;;;;;;;;;;;22.50;20.50;;;;;;5123079;27;19930;-56
2022/01/21 08:59:35;;;;;;;;;;;20.60;22.80;;;;;;5122154;27;19966;-59
2022/01/21 09:02:01;;;;;;;;;;;22.00;21.40;;;;;;5127373;27;19939;-59
2022/01/21 09:04:27;;;;;;;;;;;22.50;20.80;;;;;;5121045;27;20017;-59
2022/01/21 09:06:53;;;;;;;;;;;22.80;20.60;;;;;;5124978;27;19923;-59
2022/01/21 09:09:19;;;;;;;;;;;23.00;20.40;;;;;;5121795;27;20068;-59
2022/01/21 09:11:45;;;;;;;;;;;23.10;20.20;;;;;;5122714;27;19927;-62
2022/01/21 09:14:10;;;;;;;;;;;20.20;23.00;;;;;;5126825;27;20005;-58
2022/01/21 09:16:37;;;;;;;;;;;21.60;21.80;;;;;;5103441;27;20290;-61
2022/01/21 09:19:03;;;;;;;;;;;22.40;20.80;;;;;;5103509;27;20398;-59
2022/01/21 09:21:29;;;;;;;;;;;22.80;20.40;;;;;;5126860;27;19923;-62
2022/01/21 09:23:55;;;;;;;;;;;23.00;20.20;;;;;;5122567;27;19923;-61
2022/01/21 09:26:21;;;;;;;;;;;20.90;22.10;;;;;;5103746;27;19923;-59
2022/01/21 09:28:47;;;;;;;;;;;21.60;21.80;;;;;;5124397;27;20016;-56
2022/01/21 09:31:13;;;;;;;;;;;22.40;20.80;;;;;;5120988;27;19923;-57
2022/01/21 09:33:40;;;;;;;;;;;22.80;20.40;;;;;;5106306;28;19924;-54
2022/01/21 09:36:06;;;;;;;;;;;23.10;20.30;;;;;;5103685;27;19927;-61
2022/01/21 09:38:32;;;;;;;;;;;22.30;20.90;;;;;;5122303;27;19983;-58
2022/01/21 09:40:58;;;;;;;;;;;20.70;22.80;;;;;;5125908;27;19923;-59
2022/01/21 09:43:24;;;;;;;;;;;22.10;21.30;;;;;;5121012;27;19930;-59
2022/01/21 09:45:53;;;;;;;;;;;22.60;20.80;;;;;;5119160;27;19931;-60
2022/01/21 09:48:25;;;;;;;;;;;22.90;20.40;;;;;;5125622;27;20088;-59
2022/01/21 09:50:51;;;;;;;;;;;23.10;20.30;;;;;;5121171;28;20369;-60
2022/01/21 09:53:18;;;;;;;;;;;22.10;21.10;;;;;;5107214;28;20014;-59
2022/01/21 09:55:44;;;;;;;;;;;21.00;22.40;;;;;;5123113;28;20003;-57
2022/01/21 09:58:09;;;;;;;;;;;22.20;21.10;;;;;;5120538;28;19927;-57
2022/01/21 10:00:35;;;;;;;;;;;22.70;20.60;;;;;;5125287;28;19954;-58
2022/01/21 10:03:02;;;;;;;;;;;23.00;20.30;;;;;;5121323;28;20275;-61
2022/01/21 10:05:28;;;;;;;;;;;22.70;20.40;;;;;;5120320;28;19924;-56
2022/01/21 10:07:54;;;;;;;;;;;19.90;23.60;;;;;;5126059;28;19924;-60
2022/01/21 10:10:20;;;;;;;;;;;21.80;21.40;;;;;;5102156;28;19931;-59
2022/01/21 10:12:48;;;;;;;;;;;22.50;20.70;;;;;;5122441;28;19930;-59
2022/01/21 10:15:14;;;;;;;;;;;22.90;20.30;;;;;;5126392;28;20378;-61
2022/01/21 10:17:39;;;;;;;;;;;23.00;20.10;;;;;;5122512;28;20014;-56
2022/01/21 10:20:16;;;;;;;;;;;19.70;23.40;;;;;;5107695;28;19930;-55
2022/01/21 10:22:58;;;;;;;;;;;21.60;21.60;;;;;;5118903;28;20488;-58
2022/01/21 10:25:24;;;;;;;;;;;22.50;20.70;;;;;;5120279;28;19929;-58
2022/01/21 10:27:49;;;;;;;;;;;22.80;20.40;;;;;;5125834;28;19971;-59
2022/01/21 10:30:18;;;;;;;;;;;23.00;20.10;;;;;;5121938;28;19927;-63
2022/01/21 10:32:44;;;;;;;;;;;21.10;21.90;;;;;;5117613;28;19927;-55
2022/01/21 10:35:19;;;;;;;;;;;21.40;21.80;;;;;;5126210;28;20407;-60
2022/01/21 10:37:45;;;;;;;;;;;22.30;20.80;;;;;;5120452;28;19944;-61
2022/01/21 10:40:11;;;;;;;;;;;22.80;20.40;;;;;;5120820;28;20194;-61
2022/01/21 10:42:37;;;;;;;;;;;23.00;20.20;;;;;;5124598;28;19974;-61
2022/01/21 10:45:03;;;;;;;;;;;22.30;20.80;;;;;;5121595;28;19969;-57
2022/01/21 10:47:30;;;;;;;;;;;20.80;22.60;;;;;;5124806;28;19934;-59
2022/01/21 10:49:56;;;;;;;;;;;21.90;21.30;;;;;;5122772;28;19934;-58
2022/01/21 10:52:29;;;;;;;;;;;22.50;20.70;;;;;;5120772;28;20017;-58
2022/01/21 10:54:55;;;;;;;;;;;22.80;20.40;;;;;;5125345;28;19979;-58
2022/01/21 10:57:20;;;;;;;;;;;23.00;20.20;;;;;;5121802;28;19931;-62
2022/01/21 10:59:49;;;;;;;;;;;20.30;22.70;;;;;;5119241;27;19971;-58
2022/01/21 11:02:18;;;;;;;;;;;21.80;21.50;;;;;;5129194;27;19945;-57
2022/01/21 11:04:44;;;;;;;;;;;22.50;20.70;;;;;;5105652;27;19992;-57
2022/01/21 11:07:14;;;;;;;;;;;22.80;20.40;;;;;;5106183;27;19934;-56
2022/01/21 11:09:39;;;;;;;;;;;23.10;20.20;;;;;;5112475;27;19991;-61
2022/01/21 11:12:09;;;;;;;;;;;21.90;21.20;;;;;;5124933;27;19928;-58
2022/01/21 11:14:35;;;;;;;;;;;21.40;21.90;;;;;;5109572;27;20020;-59
2022/01/21 11:17:07;;;;;;;;;;;22.30;20.90;;;;;;5125704;27;19980;-60
2022/01/21 11:19:35;;;;;;;;;;;22.80;20.40;;;;;;5121712;27;20393;-60
2022/01/21 11:22:04;;;;;;;;;;;23.10;20.10;;;;;;5129605;27;19924;-61
2022/01/21 11:24:30;;;;;;;;;;;22.20;20.80;;;;;;5124734;27;19937;-55
2022/01/21 11:27:12;;;;;;;;;;;21.00;22.20;;;;;;5124257;27;19923;-56
2022/01/21 11:29:38;;;;;;;;;;;22.10;21.00;;;;;;5129344;27;20327;-59
2022/01/21 11:32:04;;;;;;;;;;;22.70;20.40;;;;;;5123161;27;19934;-60
2022/01/21 11:34:30;;;;;;;;;;;23.00;20.10;;;;;;5123745;27;19923;-60
2022/01/21 11:36:56;;;;;;;;;;;23.20;19.90;;;;;;5128758;27;20394;-56
2022/01/21 11:39:23;;;;;;;;;;;20.00;23.10;;;;;;5123418;27;19931;-54
2022/01/21 11:41:50;;;;;;;;;;;21.70;21.40;;;;;;5124068;27;19923;-58
2022/01/21 11:44:16;;;;;;;;;;;22.50;20.60;;;;;;5128961;27;19931;-57
2022/01/21 11:46:58;;;;;;;;;;;22.90;20.20;;;;;;5105366;27;20401;-59
2022/01/21 11:49:25;;;;;;;;;;;23.20;20.00;;;;;;5129867;27;20388;-65
2022/01/21 11:51:58;;;;;;;;;;;20.30;22.60;;;;;;5124352;27;19938;-54
2022/01/21 11:54:24;;;;;;;;;;;21.60;21.40;;;;;;5104673;27;19923;-58
2022/01/21 11:57:02;;;;;;;;;;;22.40;20.50;;;;;;5126532;27;20357;-59
2022/01/21 12:01:56;;;;;;;;;;;23.10;19.90;;;;;;5124106;27;19928;-58
2022/01/21 12:04:31;;;;;;;;;;;22.30;20.50;;;;;;5130318;27;19927;-55
2022/01/21 12:06:57;;;;;;;;;;;20.60;22.40;;;;;;5123403;27;20438;-56
2022/01/21 12:10:01;;;;;;;;;;;22.00;20.80;;;;;;5122833;27;20093;-54
2022/01/21 12:12:46;;;;;;;;;;;22.60;20.20;;;;;;5024465;28;19980;-54
2022/01/21 12:15:36;;;;;;;;;;;22.90;19.90;;;;;;5022075;28;19929;-61
2022/01/21 12:20:54;;;;;;;;;;;21.00;22.10;;;;;;5122702;27;20161;-53
2022/01/21 12:23:25;;;;;;;;;;;22.30;20.60;;;;;;5128135;27;19932;-59
2022/01/21 12:26:08;;;;;;;;;;;22.80;20.10;;;;;;5122875;27;19932;-57
2022/01/21 12:28:35;;;;;;;;;;;23.10;19.90;;;;;;5123136;27;20190;-58
2022/01/21 12:31:01;;;;;;;;;;;21.80;21.10;;;;;;5128537;27;20318;-56
2022/01/21 12:36:22;;;;;;;;;;;22.10;20.80;;;;;;5112775;27;19954;-57
2022/01/21 12:41:16;;;;;;;;;;;23.00;20.00;;;;;;5122888;27;19929;-57
2022/01/21 12:43:53;;;;;;;;;;;23.20;19.90;;;;;;5125231;27;19924;-63
2022/01/21 12:46:25;;;;;;;;;;;22.50;20.40;;;;;;5127771;27;19927;-56
2022/01/21 12:48:53;;;;;;;;;;;21.00;22.30;;;;;;5122219;27;19928;-60
2022/01/21 12:51:35;;;;;;;;;;;22.30;20.80;;;;;;5125089;27;19925;-61
2022/01/21 12:56:47;;;;;;;;;;;23.10;20.10;;;;;;5123138;27;20010;-55
2022/01/21 12:59:17;;;;;;;;;;;22.00;21.10;;;;;;5101812;27;20040;-55
2022/01/21 13:01:43;;;;;;;;;;;21.40;22.00;;;;;;5127563;27;20360;-49
2022/01/21 13:04:11;;;;;;;;;;;22.40;20.90;;;;;;5121505;27;19938;-56
2022/01/21 13:06:38;;;;;;;;;;;22.90;20.40;;;;;;5108575;27;20400;-58
2022/01/21 13:09:08;;;;;;;;;;;23.10;20.20;;;;;;5121444;27;19991;-57
2022/01/21 13:11:36;;;;;;;;;;;20.10;23.20;;;;;;5118278;27;19975;-54
2022/01/21 13:17:02;;;;;;;;;;;22.60;20.90;;;;;;5121954;27;19944;-57
2022/01/21 13:19:28;;;;;;;;;;;22.90;20.50;;;;;;5122007;27;19923;-57
2022/01/21 13:21:54;;;;;;;;;;;23.20;20.20;;;;;;5127742;27;19948;-59
2022/01/21 13:24:28;;;;;;;;;;;22.20;21.10;;;;;;5102862;27;19974;-52
2022/01/21 13:26:54;;;;;;;;;;;21.00;22.50;;;;;;5121291;27;20010;-56
2022/01/21 13:29:27;;;;;;;;;;;22.30;21.10;;;;;;5124906;27;19923;-50
2022/01/21 13:31:55;;;;;;;;;;;22.80;20.60;;;;;;5121140;27;19929;-46
2022/01/21 13:34:22;;;;;;;;;;;23.10;20.30;;;;;;5123116;27;20038;-56
2022/01/21 13:36:54;;;;;;;;;;;20.30;22.90;;;;;;5127441;27;19979;-51
2022/01/21 13:39:23;;;;;;;;;;;21.70;21.80;;;;;;5121714;27;19924;-45
2022/01/21 13:41:50;;;;;;;;;;;22.50;20.90;;;;;;5121285;27;19924;-54
2022/01/21 13:44:36;;;;;;;;;;;22.90;20.50;;;;;;5126999;27;20396;-53
2022/01/21 13:47:03;;;;;;;;;;;22.90;20.50;;;;;;5120112;27;19934;-51
2022/01/21 13:49:29;;;;;;;;;;;20.70;23.20;;;;;;5104709;28;19932;-59
2022/01/21 13:52:13;;;;;;;;;;;22.20;21.40;;;;;;5124054;28;20056;-50
2022/01/21 13:54:43;;;;;;;;;;;22.70;20.80;;;;;;5121514;28;20375;-54
2022/01/21 13:57:09;;;;;;;;;;;23.00;20.50;;;;;;5126383;28;20362;-60
2022/01/21 13:59:41;;;;;;;;;;;21.80;21.60;;;;;;5104348;28;19957;-56
2022/01/21 14:02:16;;;;;;;;;;;21.30;22.60;;;;;;5120916;28;20944;-56
2022/01/21 14:05:00;;;;;;;;;;;22.30;21.30;;;;;;5106505;28;19932;-48
2022/01/21 14:07:28;;;;;;;;;;;22.80;20.90;;;;;;5124843;28;19927;-56
2022/01/21 14:09:54;;;;;;;;;;;23.10;20.50;;;;;;5121642;28;19972;-55
2022/01/21 14:12:20;;;;;;;;;;;20.30;23.20;;;;;;5108486;28;19977;-52
2022/01/21 14:14:46;;;;;;;;;;;21.80;21.90;;;;;;5121218;28;19938;-49
2022/01/21 14:17:12;;;;;;;;;;;22.60;21.10;;;;;;5121168;28;19936;-49
2022/01/21 14:19:38;;;;;;;;;;;22.90;20.70;;;;;;5125872;28;19927;-55
2022/01/21 14:22:05;;;;;;;;;;;22.80;20.80;;;;;;5103545;28;20023;-50
2022/01/21 14:24:30;;;;;;;;;;;20.30;23.80;;;;;;5118893;28;19924;-53
2022/01/21 14:26:57;;;;;;;;;;;22.00;21.70;;;;;;5106406;28;19928;-53
2022/01/21 14:29:30;;;;;;;;;;;22.70;21.00;;;;;;5120607;28;19935;-49
2022/01/21 14:32:00;;;;;;;;;;;23.00;20.70;;;;;;5108687;28;19971;-55
2022/01/21 14:34:27;;;;;;;;;;;23.00;20.60;;;;;;5089102;27;19930;-49
2022/01/21 14:37:02;;;;;;;;;;;20.10;24.00;;;;;;5124486;27;20018;-53
2022/01/21 14:39:30;;;;;;;;;;;22.00;21.70;;;;;;5130164;27;19923;-51
2022/01/21 14:41:56;;;;;;;;;;;22.70;21.10;;;;;;5104177;27;20484;-58
2022/01/21 14:44:37;;;;;;;;;;;22.90;20.70;;;;;;5124479;27;19923;-60
2022/01/21 14:47:06;;;;;;;;;;;22.70;20.80;;;;;;5130456;27;19927;-49
2022/01/21 14:49:32;;;;;;;;;;;20.80;23.10;;;;;;5124696;27;19931;-48
2022/01/21 14:52:33;;;;;;;;;;;22.20;21.50;;;;;;5124549;27;20135;-57
2022/01/21 14:54:46;;;;;;;;;;;22.70;21.00;;;;;;5127411;27;19924;-49
2022/01/21 14:57:12;;;;;;;;;;;23.10;20.70;;;;;;5124148;27;20321;-58
2022/01/21 14:59:53;;;;;;;;;;;22.90;20.70;;;;;;5124473;27;20087;-55
2022/01/21 15:02:48;;;;;;;;;;;20.00;24.10;;;;;;5128472;27;19930;-53
2022/01/21 15:05:14;;;;;;;;;;;22.10;21.70;;;;;;5101438;27;19971;-48
2022/01/21 15:07:41;;;;;;;;;;;22.80;21.00;;;;;;5124175;27;19924;-52
2022/01/21 15:10:41;;;;;;;;;;;23.10;20.70;;;;;;5129717;27;19963;-45
2022/01/21 15:16:12;;;;;;;;;;;22.90;20.90;;;;;;5123719;27;19927;-55
2022/01/21 15:18:37;;;;;;;;;;;22.70;21.00;;;;;;5122633;27;20025;-57
2022/01/21 15:21:03;;;;;;;;;;;22.70;21.00;;;;;;5128487;27;20329;-54
2022/01/21 15:23:29;;;;;;;;;;;22.70;21.10;;;;;;5123536;27;20382;-52
2022/01/21 15:25:55;;;;;;;;;;;22.70;21.10;;;;;;5129253;27;20208;-52
2022/01/21 15:28:20;;;;;;;;;;;22.70;21.00;;;;;;5123931;27;20413;-53